createdAt,value
2022-11-03T00:01:46.239Z,0.35
2022-11-03T00:04:14.932Z,0.63
2022-11-03T00:06:43.318Z,0.70
2022-11-03T00:09:12.154Z,0.52
2022-11-03T00:11:40.154Z,0.82
2022-11-03T00:14:07.680Z,0.73
2022-11-03T00:16:34.174Z,0.63
2022-11-03T00:19:01.225Z,0.77
2022-11-03T00:21:28.220Z,1.00
2022-11-03T00:23:54.784Z,0.85
2022-11-03T00:26:28.871Z,0.90
2022-11-03T00:28:57.663Z,0.85
2022-11-03T00:31:35.306Z,1.10
2022-11-03T00:34:03.062Z,1.27
2022-11-03T00:36:35.241Z,0.82
2022-11-03T00:39:02.455Z,1.23
2022-11-03T00:41:28.897Z,1.33
2022-11-03T00:43:56.109Z,0.50
2022-11-03T00:46:23.898Z,1.00
2022-11-03T00:48:50.833Z,0.88
2022-11-03T00:51:20.297Z,0.82
2022-11-03T00:54:01.642Z,0.80
2022-11-03T00:56:34.148Z,0.70
2022-11-03T00:59:03.943Z,0.60
2022-11-03T01:01:45.397Z,1.05
2022-11-03T01:04:32.347Z,0.40
2022-11-03T01:07:00.432Z,1.10
2022-11-03T01:09:30.932Z,0.60
2022-11-03T01:11:57.335Z,0.77
2022-11-03T01:14:25.957Z,0.52
2022-11-03T01:16:52.583Z,0.50
2022-11-03T01:19:19.166Z,0.93
2022-11-03T01:21:45.705Z,0.60
2022-11-03T01:24:12.256Z,1.25
2022-11-03T01:26:38.743Z,1.08
2022-11-03T01:29:05.647Z,0.55
2022-11-03T01:31:32.186Z,0.93
2022-11-03T01:33:58.705Z,0.87
2022-11-03T01:36:25.812Z,0.85
2022-11-03T01:38:54.344Z,0.80
2022-11-03T01:41:23.558Z,0.95
2022-11-03T01:44:04.954Z,0.50
2022-11-03T01:46:31.707Z,0.63
2022-11-03T01:49:04.659Z,0.40
2022-11-03T01:51:33.898Z,0.70
2022-11-03T01:54:05.442Z,0.50
2022-11-03T01:56:35.800Z,0.50
2022-11-03T01:59:03.365Z,0.43
2022-11-03T02:01:31.393Z,0.85
2022-11-03T02:04:03.067Z,0.55
2022-11-03T02:06:30.580Z,0.70
2022-11-03T02:09:08.100Z,0.60
2022-11-03T02:11:54.701Z,0.63
2022-11-03T02:14:21.496Z,0.77
2022-11-03T02:16:54.746Z,0.95
2022-11-03T02:19:44.339Z,0.95
2022-11-03T02:22:32.086Z,0.60
2022-11-03T02:25:37.452Z,0.60
2022-11-03T02:28:05.861Z,0.47
2022-11-03T02:30:38.958Z,0.50
2022-11-03T02:33:26.654Z,1.10
2022-11-03T02:36:02.246Z,0.73
2022-11-03T02:38:33.016Z,1.00
2022-11-03T02:41:03.231Z,0.70
2022-11-03T02:43:30.203Z,0.95
2022-11-03T02:45:56.704Z,0.80
2022-11-03T02:48:23.284Z,0.70
2022-11-03T02:50:49.706Z,0.60
2022-11-03T02:53:17.278Z,1.27
2022-11-03T02:56:03.633Z,0.70
2022-11-03T02:58:42.308Z,0.75
2022-11-03T03:01:47.380Z,0.80
2022-11-03T03:04:24.079Z,0.80
2022-11-03T03:07:01.733Z,0.70
2022-11-03T03:09:42.440Z,0.73
2022-11-03T03:12:10.896Z,0.95
2022-11-03T03:14:41.802Z,0.50
2022-11-03T03:17:21.855Z,0.53
2022-11-03T03:20:07.537Z,0.70
2022-11-03T03:22:47.518Z,1.05
2022-11-03T03:25:29.021Z,0.45
2022-11-03T03:28:01.070Z,0.60
2022-11-03T03:30:30.756Z,0.47
2022-11-03T03:32:59.558Z,0.75
2022-11-03T03:35:30.785Z,0.60
2022-11-03T03:38:04.806Z,0.90
2022-11-03T03:40:36.380Z,1.15
2022-11-03T03:43:06.526Z,1.00
2022-11-03T03:45:35.168Z,1.02
2022-11-03T03:48:03.083Z,0.93
2022-11-03T03:50:32.922Z,1.20
2022-11-03T03:53:05.885Z,0.55
2022-11-03T03:55:51.227Z,0.40
2022-11-03T03:58:17.797Z,0.20
2022-11-03T04:00:44.800Z,0.63
2022-11-03T04:03:23.320Z,0.60
2022-11-03T04:05:50.525Z,0.50
2022-11-03T04:08:17.888Z,0.50
2022-11-03T04:11:03.902Z,0.50
2022-11-03T04:13:49.396Z,0.60
2022-11-03T04:16:34.923Z,0.40
2022-11-03T04:19:20.621Z,0.43
2022-11-03T04:22:25.512Z,0.50
2022-11-03T04:24:52.542Z,0.57
2022-11-03T04:27:32.354Z,0.40
2022-11-03T04:30:19.242Z,0.50
2022-11-03T04:32:48.673Z,0.93
2022-11-03T04:35:20.617Z,0.40
2022-11-03T04:37:58.926Z,0.90
2022-11-03T04:40:25.639Z,0.47
2022-11-03T04:42:52.299Z,0.50
2022-11-03T04:45:30.180Z,0.40
2022-11-03T04:47:59.946Z,0.30
2022-11-03T04:50:26.496Z,0.30
2022-11-03T04:52:58.846Z,0.95
2022-11-03T04:55:26.404Z,0.38
2022-11-03T04:57:58.477Z,0.50
2022-11-03T05:00:25.095Z,0.20
2022-11-03T05:02:55.883Z,0.50
2022-11-03T05:05:25.534Z,0.20
2022-11-03T05:07:53.928Z,0.30
2022-11-03T05:10:25.326Z,0.30
2022-11-03T05:12:53.684Z,0.30
2022-11-03T05:15:43.694Z,0.20
2022-11-03T05:18:18.477Z,0.30
2022-11-03T05:20:56.389Z,0.17
2022-11-03T05:23:23.271Z,0.32
2022-11-03T05:25:53.282Z,0.30
2022-11-03T05:28:26.196Z,0.17
2022-11-03T05:30:53.877Z,0.50
2022-11-03T05:33:32.174Z,0.77
2022-11-03T05:36:03.376Z,0.13
2022-11-03T05:38:32.991Z,0.20
2022-11-03T05:41:01.538Z,0.35
2022-11-03T05:43:28.945Z,0.30
2022-11-03T05:46:01.476Z,0.60
2022-11-03T05:48:34.787Z,0.30
2022-11-03T05:51:10.717Z,0.23
2022-11-03T05:53:42.023Z,0.25
2022-11-03T05:56:17.127Z,0.22
2022-11-03T05:58:44.960Z,0.30
2022-11-03T06:01:19.882Z,0.50
2022-11-03T06:03:47.361Z,0.80
2022-11-03T06:06:30.827Z,0.38
2022-11-03T06:08:59.976Z,0.80
2022-11-03T06:11:36.302Z,0.45
2022-11-03T06:14:16.558Z,0.52
2022-11-03T06:16:49.545Z,0.47
2022-11-03T06:19:19.726Z,0.43
2022-11-03T06:21:47.409Z,0.60
2022-11-03T06:24:15.067Z,0.35
2022-11-03T06:26:44.380Z,0.90
2022-11-03T06:29:19.810Z,0.50
2022-11-03T06:31:49.921Z,0.52
2022-11-03T06:34:42.472Z,0.52
2022-11-03T06:37:34.216Z,0.70
2022-11-03T06:40:24.232Z,0.80
2022-11-03T06:42:54.147Z,0.50
2022-11-03T06:45:22.744Z,0.60
2022-11-03T06:47:51.060Z,0.55
2022-11-03T06:50:33.387Z,0.65
2022-11-03T06:53:04.032Z,0.50
2022-11-03T06:55:38.731Z,0.70
2022-11-03T06:58:17.177Z,0.60
2022-11-03T07:00:48.935Z,0.63
2022-11-03T07:03:43.479Z,0.98
2022-11-03T07:06:10.000Z,0.63
2022-11-03T07:08:36.424Z,0.60
2022-11-03T07:11:15.099Z,0.70
2022-11-03T07:13:42.547Z,0.50
2022-11-03T07:16:18.673Z,0.70
2022-11-03T07:18:47.644Z,0.60
2022-11-03T07:21:34.830Z,0.60
2022-11-03T07:24:04.795Z,0.70
2022-11-03T07:26:33.714Z,0.70
2022-11-03T07:29:01.148Z,0.80
2022-11-03T07:31:27.821Z,0.82
2022-11-03T07:33:58.063Z,0.90
2022-11-03T07:36:28.020Z,1.25
2022-11-03T07:38:56.496Z,0.70
2022-11-03T07:41:31.176Z,0.90
2022-11-03T07:44:02.099Z,0.80
2022-11-03T07:46:28.735Z,0.50
2022-11-03T07:48:58.010Z,0.60
2022-11-03T07:51:29.926Z,0.60
2022-11-03T07:54:08.576Z,0.50
2022-11-03T07:56:57.163Z,0.63
2022-11-03T07:59:41.406Z,0.50
2022-11-03T08:02:48.968Z,0.93
2022-11-03T08:05:15.589Z,0.80
2022-11-03T08:07:42.068Z,0.90
2022-11-03T08:10:09.025Z,0.63
2022-11-03T08:12:35.480Z,0.87
2022-11-03T08:15:01.943Z,0.55
2022-11-03T08:17:28.453Z,0.80
2022-11-03T08:19:54.983Z,0.95
2022-11-03T08:22:23.159Z,0.88
2022-11-03T08:24:49.652Z,0.90
2022-11-03T08:27:16.172Z,0.50
2022-11-03T08:29:42.666Z,0.82
2022-11-03T08:32:09.137Z,0.70
2022-11-03T08:34:35.736Z,0.82
2022-11-03T08:37:02.202Z,0.60
2022-11-03T08:39:28.781Z,0.68
2022-11-03T08:41:55.233Z,0.80
2022-11-03T08:44:21.688Z,0.75
2022-11-03T08:46:48.102Z,0.68
2022-11-03T08:49:14.612Z,0.70
2022-11-03T08:51:44.464Z,0.55
2022-11-03T08:54:11.343Z,0.70
2022-11-03T08:56:37.788Z,0.70
2022-11-03T08:59:04.241Z,0.73
2022-11-03T09:01:30.800Z,0.63
2022-11-03T09:03:57.573Z,0.60
2022-11-03T09:06:24.133Z,0.68
2022-11-03T09:11:37.105Z,0.60
2022-11-03T09:14:03.954Z,0.40
2022-11-03T09:16:30.390Z,0.52
2022-11-03T09:18:56.838Z,0.60
2022-11-03T09:21:23.378Z,0.52
2022-11-03T09:23:50.099Z,0.73
2022-11-03T09:26:16.638Z,11.13
2022-11-03T09:28:43.200Z,3.97
2022-11-03T09:31:09.899Z,21.65
2022-11-03T09:33:37.000Z,1.83
2022-11-03T09:36:03.541Z,1.10
2022-11-03T09:38:30.004Z,16.53
2022-11-03T09:40:56.584Z,3.60
2022-11-03T09:43:23.199Z,7.28
2022-11-03T09:45:49.708Z,9.98
2022-11-03T09:48:16.292Z,3.35
2022-11-03T09:50:42.958Z,13.23
2022-11-03T09:53:12.230Z,3.13
2022-11-03T09:55:39.564Z,3.45
2022-11-03T09:58:17.713Z,5.22
2022-11-03T10:00:45.307Z,5.65
2022-11-03T10:03:13.646Z,2.80
2022-11-03T10:05:42.109Z,2.17
2022-11-03T10:08:23.196Z,1.67
2022-11-03T10:10:51.149Z,2.15
2022-11-03T10:13:30.340Z,2.60
2022-11-03T10:16:01.985Z,2.23
2022-11-03T10:18:29.018Z,1.95
2022-11-03T10:20:55.884Z,1.55
2022-11-03T10:23:22.344Z,0.90
2022-11-03T10:25:48.811Z,1.65
2022-11-03T10:28:18.395Z,1.27
2022-11-03T10:31:17.555Z,0.73
2022-11-03T10:34:02.855Z,1.20
2022-11-03T10:36:33.074Z,1.50
2022-11-03T10:39:01.782Z,1.33
2022-11-03T10:41:30.686Z,1.10
2022-11-03T10:44:18.937Z,0.80
2022-11-03T10:47:06.763Z,1.27
2022-11-03T10:49:43.259Z,1.05
2022-11-03T10:52:19.921Z,1.90
2022-11-03T10:54:47.650Z,1.40
2022-11-03T10:57:15.433Z,1.83
2022-11-03T10:59:43.757Z,2.10
2022-11-03T11:02:22.376Z,1.50
2022-11-03T11:04:51.889Z,1.00
2022-11-03T11:07:22.200Z,0.73
2022-11-03T11:09:49.076Z,0.90
2022-11-03T11:12:22.672Z,0.80
2022-11-03T11:15:00.712Z,0.95
2022-11-03T11:17:47.893Z,0.90
2022-11-03T11:20:32.004Z,0.67
2022-11-03T11:23:29.418Z,0.95
2022-11-03T11:26:27.226Z,0.93
2022-11-03T11:29:08.984Z,1.42
2022-11-03T11:31:37.557Z,1.30
2022-11-03T11:34:09.861Z,1.00
2022-11-03T11:36:38.072Z,1.35
2022-11-03T11:39:11.115Z,1.10
2022-11-03T11:42:14.911Z,0.93
2022-11-03T11:44:45.848Z,1.35
2022-11-03T11:47:34.079Z,1.57
2022-11-03T11:50:06.989Z,1.40
2022-11-03T11:52:39.949Z,1.27
2022-11-03T11:55:07.217Z,0.65
2022-11-03T11:57:35.042Z,1.02
2022-11-03T12:00:01.655Z,1.00
2022-11-03T12:02:31.118Z,0.98
2022-11-03T12:05:04.809Z,1.25
2022-11-03T12:07:36.503Z,1.17
2022-11-03T12:10:14.713Z,1.15
2022-11-03T12:12:41.144Z,1.30
2022-11-03T12:15:46.531Z,1.55
2022-11-03T12:18:52.814Z,1.45
2022-11-03T12:21:50.206Z,1.10
2022-11-03T12:24:26.691Z,1.20
2022-11-03T12:26:53.373Z,1.13
2022-11-03T12:29:19.830Z,0.93
2022-11-03T12:31:47.370Z,1.27
2022-11-03T12:34:13.902Z,0.68
2022-11-03T12:36:40.400Z,0.90
2022-11-03T12:39:06.867Z,0.90
2022-11-03T12:41:33.419Z,1.17
2022-11-03T12:43:59.988Z,1.80
2022-11-03T12:46:27.085Z,2.60
2022-11-03T12:48:53.641Z,2.80
2022-11-03T12:51:23.155Z,2.07
2022-11-03T12:53:50.043Z,1.92
2022-11-03T12:56:17.600Z,2.13
2022-11-03T12:58:44.891Z,1.60
2022-11-03T13:01:11.919Z,1.15
2022-11-03T13:03:38.715Z,0.90
2022-11-03T13:06:09.816Z,0.75
2022-11-03T13:08:37.252Z,0.77
2022-11-03T13:11:04.294Z,0.93
2022-11-03T13:13:31.532Z,1.10
2022-11-03T13:15:58.021Z,1.20
2022-11-03T13:18:24.532Z,0.70
2022-11-03T13:20:50.994Z,0.35
2022-11-03T13:23:20.331Z,0.75
2022-11-03T13:25:49.570Z,0.90
2022-11-03T13:28:16.051Z,1.03
2022-11-03T13:30:42.510Z,0.60
2022-11-03T13:33:09.310Z,0.93
2022-11-03T13:35:36.171Z,0.90
2022-11-03T13:38:02.700Z,1.50
2022-11-03T13:40:55.617Z,1.60
2022-11-03T13:43:15.548Z,1.30
2022-11-03T13:45:42.022Z,1.83
2022-11-03T13:50:56.206Z,0.98
2022-11-03T13:56:12.811Z,0.90
2022-11-03T14:01:28.133Z,0.98
2022-11-03T14:06:41.118Z,2.03
2022-11-03T14:09:07.674Z,1.83
2022-11-03T14:11:52.756Z,1.75
2022-11-03T14:14:19.249Z,1.50
2022-11-03T14:16:45.817Z,1.50
2022-11-03T14:19:12.399Z,1.37
2022-11-03T14:21:42.623Z,1.65
2022-11-03T14:24:09.395Z,1.70
2022-11-03T14:26:42.092Z,1.35
2022-11-03T14:29:09.507Z,1.02
2022-11-03T14:31:36.054Z,0.97
2022-11-03T14:34:02.662Z,0.52
2022-11-03T14:36:29.181Z,0.60
2022-11-03T14:38:55.666Z,0.50
2022-11-03T14:41:41.046Z,0.52
2022-11-03T14:44:07.596Z,0.60
2022-11-03T14:46:34.061Z,0.50
2022-11-03T14:49:03.437Z,0.43
2022-11-03T14:51:30.547Z,0.68
2022-11-03T14:53:57.714Z,0.98
2022-11-03T14:56:25.005Z,0.70
2022-11-03T14:58:51.849Z,0.70
2022-11-03T15:01:19.308Z,0.50
2022-11-03T15:03:45.923Z,0.80
2022-11-03T15:06:12.553Z,0.55
2022-11-03T15:08:39.195Z,0.60
2022-11-03T15:11:08.016Z,0.50
2022-11-03T15:13:39.638Z,0.40
2022-11-03T15:16:11.427Z,0.82
2022-11-03T15:18:37.881Z,0.40
2022-11-03T15:21:04.838Z,0.70
2022-11-03T15:26:18.232Z,1.00
2022-11-03T15:28:44.713Z,0.80
2022-11-03T15:31:11.280Z,0.93
2022-11-03T15:33:37.705Z,1.20
2022-11-03T15:36:04.720Z,0.93
2022-11-03T15:38:31.520Z,0.50
2022-11-03T15:41:15.589Z,0.60
2022-11-03T15:43:43.333Z,0.50
2022-11-03T15:46:10.585Z,0.80
2022-11-03T15:48:37.563Z,0.93
2022-11-03T15:51:04.718Z,1.10
2022-11-03T15:53:31.646Z,1.08
2022-11-03T15:55:58.545Z,1.23
2022-11-03T15:58:25.054Z,1.37
2022-11-03T16:00:51.631Z,1.52
2022-11-03T16:03:18.314Z,2.20
2022-11-03T16:05:44.885Z,2.35
2022-11-03T16:08:11.523Z,2.10
2022-11-03T16:10:38.278Z,2.80
2022-11-03T16:13:04.803Z,3.45
2022-11-03T16:15:31.352Z,3.53
2022-11-03T16:18:02.703Z,3.60
2022-11-03T16:20:32.393Z,3.92
2022-11-03T16:22:58.891Z,3.70
2022-11-03T16:25:25.370Z,4.22
2022-11-03T16:27:51.795Z,4.65
2022-11-03T16:30:18.369Z,4.75
2022-11-03T16:32:45.034Z,4.72
2022-11-03T16:35:11.570Z,4.20
2022-11-03T16:37:38.053Z,4.93
2022-11-03T16:40:05.718Z,4.70
2022-11-03T16:42:38.245Z,5.00
2022-11-03T16:45:16.475Z,4.38
2022-11-03T16:47:42.981Z,4.17
2022-11-03T16:50:09.632Z,4.43
2022-11-03T16:52:36.098Z,4.63
2022-11-03T16:55:02.747Z,6.10
2022-11-03T16:57:29.239Z,4.60
2022-11-03T16:59:55.868Z,4.50
2022-11-03T17:02:22.425Z,4.07
2022-11-03T17:04:48.976Z,4.38
2022-11-03T17:07:15.420Z,3.25
2022-11-03T17:09:41.917Z,4.65
2022-11-03T17:12:08.388Z,3.10
2022-11-03T17:14:36.145Z,2.00
2022-11-03T17:17:03.437Z,2.78
2022-11-03T17:19:30.461Z,2.15
2022-11-03T17:21:57.202Z,2.13
2022-11-03T17:24:23.769Z,2.13
2022-11-03T17:26:57.425Z,2.78
2022-11-03T17:29:35.460Z,1.63
2022-11-03T17:32:05.669Z,1.20
2022-11-03T17:34:32.257Z,2.38
2022-11-03T17:36:59.055Z,1.57
2022-11-03T17:39:30.394Z,1.70
2022-11-03T17:42:10.492Z,1.55
2022-11-03T17:44:36.996Z,1.92
2022-11-03T17:47:03.515Z,2.90
2022-11-03T17:49:29.957Z,2.47
2022-11-03T17:51:59.112Z,2.00
2022-11-03T17:54:30.037Z,2.60
2022-11-03T17:56:57.032Z,2.63
2022-11-03T17:59:23.647Z,2.17
2022-11-03T18:01:51.578Z,2.47
2022-11-03T18:04:18.217Z,2.63
2022-11-03T18:06:45.521Z,2.58
2022-11-03T18:09:12.045Z,2.50
2022-11-03T18:12:00.172Z,2.45
2022-11-03T18:14:28.884Z,2.73
2022-11-03T18:16:56.068Z,2.42
2022-11-03T18:19:22.821Z,2.60
2022-11-03T18:21:49.373Z,2.15
2022-11-03T18:24:18.244Z,2.00
2022-11-03T18:26:44.706Z,2.03
2022-11-03T18:29:11.309Z,1.85
2022-11-03T18:31:41.636Z,2.97
2022-11-03T18:34:22.298Z,2.38
2022-11-03T18:36:49.528Z,3.25
2022-11-03T18:39:23.318Z,3.10
2022-11-03T18:41:50.350Z,3.40
2022-11-03T18:44:20.528Z,4.00
2022-11-03T18:46:48.408Z,4.55
2022-11-03T18:49:16.001Z,4.55
2022-11-03T18:51:48.458Z,5.13
2022-11-03T18:56:46.656Z,23.08
2022-11-03T18:59:31.869Z,20.55
2022-11-03T19:01:58.863Z,20.33
2022-11-03T19:04:25.422Z,8.20
2022-11-03T19:06:52.906Z,5.85
2022-11-03T19:09:24.341Z,5.47
2022-11-03T19:11:52.870Z,6.35
2022-11-03T19:14:28.694Z,8.68
2022-11-03T19:19:44.386Z,11.65
2022-11-03T19:22:16.236Z,9.35
2022-11-03T19:24:43.656Z,12.63
2022-11-03T19:27:16.680Z,12.23
2022-11-03T19:29:44.911Z,8.10
2022-11-03T19:32:31.183Z,5.75
2022-11-03T19:35:06.418Z,6.63
2022-11-03T19:37:35.703Z,7.75
2022-11-03T19:40:08.605Z,5.82
2022-11-03T19:42:36.726Z,5.73
2022-11-03T19:45:06.648Z,5.35
2022-11-03T19:47:47.760Z,5.97
2022-11-03T19:50:22.200Z,5.38
2022-11-03T19:52:52.147Z,5.43
2022-11-03T19:55:19.403Z,5.93
2022-11-03T19:57:45.956Z,6.13
2022-11-03T20:00:17.562Z,5.82
2022-11-03T20:02:44.960Z,6.50
2022-11-03T20:05:12.793Z,5.78
2022-11-03T20:07:41.242Z,6.13
2022-11-03T20:10:18.556Z,4.47
2022-11-03T20:12:46.058Z,5.82
2022-11-03T20:15:16.349Z,5.07
2022-11-03T20:17:44.730Z,4.85
2022-11-03T20:20:16.449Z,5.00
2022-11-03T20:22:46.474Z,6.78
2022-11-03T20:25:23.372Z,7.10
2022-11-03T20:27:51.179Z,7.00
2022-11-03T20:30:20.310Z,6.80
2022-11-03T20:32:48.069Z,9.43
2022-11-03T20:35:23.954Z,7.75
2022-11-03T20:37:54.716Z,6.88
2022-11-03T20:40:24.015Z,6.30
2022-11-03T20:42:53.920Z,6.85
2022-11-03T20:45:22.099Z,7.63
2022-11-03T20:47:49.052Z,6.95
2022-11-03T20:50:17.900Z,8.25
2022-11-03T20:52:46.782Z,8.20
2022-11-03T20:55:22.252Z,8.70
2022-11-03T20:57:49.931Z,8.63
2022-11-03T21:00:26.432Z,8.10
2022-11-03T21:02:54.599Z,5.85
2022-11-03T21:05:26.792Z,5.15
2022-11-03T21:07:54.952Z,5.07
2022-11-03T21:10:23.692Z,4.43
2022-11-03T21:12:52.139Z,4.03
2022-11-03T21:16:03.733Z,3.92
2022-11-03T21:18:48.822Z,4.78
2022-11-03T21:21:20.780Z,4.18
2022-11-03T21:23:47.802Z,4.30
2022-11-03T21:26:14.296Z,4.35
2022-11-03T21:28:40.873Z,4.15
2022-11-03T21:31:12.815Z,4.57
2022-11-03T21:33:39.376Z,4.68
2022-11-03T21:36:06.207Z,4.67
2022-11-03T21:38:32.747Z,4.82
2022-11-03T21:41:19.315Z,5.68
2022-11-03T21:44:04.315Z,6.22
2022-11-03T21:46:30.735Z,5.68
2022-11-03T21:49:15.898Z,6.47
2022-11-03T21:51:42.366Z,5.68
2022-11-03T21:54:08.830Z,4.70
2022-11-03T21:56:35.271Z,5.05
2022-11-03T21:59:01.731Z,5.13
2022-11-03T22:01:28.325Z,5.50
2022-11-03T22:03:56.262Z,5.35
2022-11-03T22:06:22.703Z,6.80
2022-11-03T22:08:49.282Z,7.43
2022-11-03T22:11:21.663Z,6.95
2022-11-03T22:14:06.155Z,6.90
2022-11-03T22:16:40.903Z,5.82
2022-11-03T22:19:37.667Z,6.45
2022-11-03T22:22:31.046Z,5.10
2022-11-03T22:25:16.061Z,5.28
2022-11-03T22:27:42.753Z,5.80
2022-11-03T22:30:28.920Z,5.18
2022-11-03T22:32:57.350Z,5.25
2022-11-03T22:35:43.929Z,5.80
2022-11-03T22:38:12.936Z,4.90
2022-11-03T22:40:59.738Z,4.60
2022-11-03T22:43:45.531Z,5.32
2022-11-03T22:46:17.240Z,5.07
2022-11-03T22:48:44.333Z,4.50
2022-11-03T22:51:16.656Z,4.88
2022-11-03T22:54:02.210Z,5.17
2022-11-03T22:56:30.242Z,5.32
2022-11-03T22:58:57.213Z,4.82
2022-11-03T23:01:26.593Z,5.10
2022-11-03T23:03:54.020Z,5.22
2022-11-03T23:06:25.952Z,4.93
2022-11-03T23:08:54.576Z,5.20
2022-11-03T23:11:23.819Z,5.10
2022-11-03T23:14:02.079Z,4.30
2022-11-03T23:16:30.918Z,4.10
2022-11-03T23:19:16.936Z,4.90
2022-11-03T23:21:48.123Z,5.10
2022-11-03T23:24:33.911Z,4.60
2022-11-03T23:27:00.981Z,4.20
2022-11-03T23:29:28.048Z,4.50
2022-11-03T23:31:55.064Z,4.97
2022-11-03T23:34:21.983Z,5.32
2022-11-03T23:36:48.508Z,6.40
2022-11-03T23:39:16.960Z,5.60
2022-11-03T23:41:44.242Z,5.15
2022-11-03T23:44:12.022Z,5.37
2022-11-03T23:46:57.165Z,5.75
2022-11-03T23:49:23.642Z,4.93
2022-11-03T23:51:50.149Z,5.40
2022-11-03T23:54:17.008Z,6.45
2022-11-03T23:57:04.064Z,5.97
2022-11-03T23:59:32.399Z,5.60
